Rayne, LA (70578)

7:54 AM CDT on August 30, 2014 (GMT -0500)
Oaktree Lane | Change Station
CLOSE
Current Station
Personal Weather Station
Location: Rayne, LA
Elevation: 28 ft
Nearby Weather Stations
Active Advisory: Flash Flood Watch

Elev 28 ft 30.27 °N, 92.26 °W | Updated 4 seconds ago

Rain
Rain
75.8 °F
Feels Like 75 °F
N
1.0
Wind Variable Wind from ESE
Gusts 4.0 mph

Today
High -- | Low -- °F
--% Chance of Precip.
Yesterday
High -- | Low -- °F
Precip. -- in
6:44 AM 7:34 PM
Waxing Crescent, 21% visible
Pressure 29.96 in
Visibility 3.0 miles
Clouds Few 1100 ft
Scattered Clouds 4600 ft
Mostly Cloudy 6500 ft
Heat Index 75 °F
Dew Point 74 °F
Humidity 95%
Rainfall 0.18 in
Snow Depth Not available.
UV 0 out of 12
Pollen .80 out of 12
Air Quality Not available.
Flu Activity Not available.
SPECI KLFT 301221Z 17011G20KT 3SM RA BR FEW011 SCT046 BKN065 26/24 A2996 RMK AO2 LTG DSNT SW RAB03 P0006 T02560239

More Conditions Fewer Conditions

Pressure 29.96 in
Visibility 3.0 miles
Clouds Few 1100 ft
Scattered Clouds 4600 ft
Mostly Cloudy 6500 ft
Heat Index 75 °F
Dew Point 74 °F
Humidity 95%
Rainfall 0.18 in
Snow Depth Not available.
UV 0 out of 12
Pollen .80 out of 12
Air Quality Not available.
Flu Activity Not available.
SPECI KLFT 301221Z 17011G20KT 3SM RA BR FEW011 SCT046 BKN065 26/24 A2996 RMK AO2 LTG DSNT SW RAB03 P0006 T02560239

More Conditions Fewer Conditions

Nowcast | as of 5:33 am CDT on August 30, 2014

Through 8 am...areas of showers and isolated thunderstorms will continue to stream out of the northwest Gulf of Mexico into southeast Texas and southwest Louisiana. Moderate to heavy rains are possible in the stronger thunderstorms. Rainfall amounts of 1 to 2 inches an hour is possible with the stronger thunderstorms.

×

10-Day Weather Forecast

Almanac

Astronomy

Aug. 30, 2014 Rise Set
Actual Time 6:44 AM CDT 7:34 PM CDT
Civil Twilight 6:20 AM CDT 7:58 PM CDT
Nautical Twilight 5:51 AM CDT 8:27 PM CDT
Astronomical Twilight 5:21 AM CDT 8:56 PM CDT
Moon 11:10 AM CDT 10:32 PM CDT
Length of Visible Light 13h 38m
Length of Day
12h 49m
Tomorrow will be 1m 45s shorter.
Waxing Crescent, 21% of the Moon is Illuminated
Today
Waxing Crescent
Sep 2
First Quarter
Sep 8
Full
Sep 15
Last Quarter
Sep 24
New

Today's Extremes

State Highs State Lows

Community

WunderPhotos

Upload Photos

1,748,500 photos uploaded!

WunderBlogs® & News

By Dr. Jeff Masters
Director of Meteorology, Weather Underground
By Kari Strenfel
Meteorologist, Weather Underground
By Christopher C. Burt
Weather Historian, Weather Underground
August 30, 2014
August 30, 2014
August 30, 2014

Nearby

Snow Depth

Station Depth Elevation
No new snow has been reported.

Earthquake Activity

City Distance Mag. Time & Date
No recent earthquake activity has been reported nearby.
Minimum magnitude displayed is 2.5.

Coastal Water Temperatures

Place Temperature
Fresh Water Canal Locks, LA 82.0 °F
Amerada Pass, LA 82.9 °F

Nearby Weather Stations